sensor_id;sensor_type;location;lat;lon;timestamp;P1;durP1;ratioP1;P2;durP2;ratioP2
26600;SDS011;14241;49.260;10.496;2023-06-24T00:00:56;5.40;;;4.68;;
26600;SDS011;14241;49.260;10.496;2023-06-24T00:03:22;7.00;;;4.88;;
26600;SDS011;14241;49.260;10.496;2023-06-24T00:05:47;6.43;;;4.68;;
26600;SDS011;14241;49.260;10.496;2023-06-24T00:08:17;5.35;;;4.85;;
26600;SDS011;14241;49.260;10.496;2023-06-24T00:10:48;6.50;;;4.80;;
26600;SDS011;14241;49.260;10.496;2023-06-24T00:13:16;6.93;;;4.68;;
26600;SDS011;14241;49.260;10.496;2023-06-24T00:15:42;5.38;;;4.88;;
26600;SDS011;14241;49.260;10.496;2023-06-24T00:18:11;5.57;;;4.45;;
26600;SDS011;14241;49.260;10.496;2023-06-24T00:20:36;4.53;;;4.13;;
26600;SDS011;14241;49.260;10.496;2023-06-24T00:23:02;4.72;;;4.30;;
26600;SDS011;14241;49.260;10.496;2023-06-24T00:25:27;4.95;;;4.45;;
26600;SDS011;14241;49.260;10.496;2023-06-24T00:27:53;5.63;;;4.97;;
26600;SDS011;14241;49.260;10.496;2023-06-24T00:30:18;6.93;;;4.50;;
26600;SDS011;14241;49.260;10.496;2023-06-24T00:32:43;8.23;;;4.43;;
26600;SDS011;14241;49.260;10.496;2023-06-24T00:35:09;5.22;;;4.55;;
26600;SDS011;14241;49.260;10.496;2023-06-24T00:37:35;5.60;;;4.57;;
26600;SDS011;14241;49.260;10.496;2023-06-24T00:40:01;5.40;;;4.70;;
26600;SDS011;14241;49.260;10.496;2023-06-24T00:42:26;5.88;;;4.60;;
26600;SDS011;14241;49.260;10.496;2023-06-24T00:44:51;4.90;;;4.30;;
26600;SDS011;14241;49.260;10.496;2023-06-24T00:47:17;4.90;;;4.20;;
26600;SDS011;14241;49.260;10.496;2023-06-24T00:49:43;4.82;;;4.28;;
26600;SDS011;14241;49.260;10.496;2023-06-24T00:52:10;4.82;;;4.20;;
26600;SDS011;14241;49.260;10.496;2023-06-24T00:54:35;5.50;;;4.55;;
26600;SDS011;14241;49.260;10.496;2023-06-24T00:57:01;4.77;;;4.33;;
26600;SDS011;14241;49.260;10.496;2023-06-24T00:59:26;5.10;;;4.60;;
26600;SDS011;14241;49.260;10.496;2023-06-24T01:01:54;5.32;;;4.82;;
26600;SDS011;14241;49.260;10.496;2023-06-24T01:04:19;4.78;;;4.38;;
26600;SDS011;14241;49.260;10.496;2023-06-24T01:06:45;5.18;;;4.68;;
26600;SDS011;14241;49.260;10.496;2023-06-24T01:09:10;5.07;;;4.22;;
26600;SDS011;14241;49.260;10.496;2023-06-24T01:11:36;4.25;;;3.80;;
26600;SDS011;14241;49.260;10.496;2023-06-24T01:14:01;4.72;;;4.22;;
26600;SDS011;14241;49.260;10.496;2023-06-24T01:26:57;5.47;;;4.97;;
26600;SDS011;14241;49.260;10.496;2023-06-24T01:35:01;4.65;;;4.15;;
26600;SDS011;14241;49.260;10.496;2023-06-24T01:40:01;5.03;;;3.97;;
26600;SDS011;14241;49.260;10.496;2023-06-24T01:42:33;4.70;;;4.20;;
26600;SDS011;14241;49.260;10.496;2023-06-24T01:44:59;4.25;;;3.85;;
26600;SDS011;14241;49.260;10.496;2023-06-24T01:47:25;4.82;;;4.30;;
26600;SDS011;14241;49.260;10.496;2023-06-24T01:49:52;4.93;;;4.38;;
26600;SDS011;14241;49.260;10.496;2023-06-24T01:52:18;5.65;;;4.30;;
26600;SDS011;14241;49.260;10.496;2023-06-24T01:54:45;5.30;;;4.38;;
26600;SDS011;14241;49.260;10.496;2023-06-24T01:57:11;5.18;;;4.35;;
26600;SDS011;14241;49.260;10.496;2023-06-24T01:59:37;6.63;;;4.38;;
26600;SDS011;14241;49.260;10.496;2023-06-24T02:02:03;4.60;;;4.15;;
26600;SDS011;14241;49.260;10.496;2023-06-24T02:04:29;4.38;;;3.90;;
26600;SDS011;14241;49.260;10.496;2023-06-24T02:06:57;4.38;;;3.97;;
26600;SDS011;14241;49.260;10.496;2023-06-24T02:09:23;4.70;;;4.20;;
26600;SDS011;14241;49.260;10.496;2023-06-24T02:11:50;5.10;;;4.38;;
26600;SDS011;14241;49.260;10.496;2023-06-24T02:14:16;6.82;;;4.80;;
26600;SDS011;14241;49.260;10.496;2023-06-24T02:16:42;4.80;;;4.30;;
26600;SDS011;14241;49.260;10.496;2023-06-24T02:19:08;6.28;;;5.10;;
26600;SDS011;14241;49.260;10.496;2023-06-24T02:21:35;6.22;;;4.22;;
26600;SDS011;14241;49.260;10.496;2023-06-24T02:24:01;5.55;;;4.72;;
26600;SDS011;14241;49.260;10.496;2023-06-24T02:26:27;5.22;;;4.68;;
26600;SDS011;14241;49.260;10.496;2023-06-24T02:28:53;5.80;;;4.90;;
26600;SDS011;14241;49.260;10.496;2023-06-24T02:31:19;6.30;;;4.68;;
26600;SDS011;14241;49.260;10.496;2023-06-24T02:33:44;5.47;;;4.60;;
26600;SDS011;14241;49.260;10.496;2023-06-24T02:36:09;5.23;;;4.73;;
26600;SDS011;14241;49.260;10.496;2023-06-24T02:38:36;5.20;;;4.70;;
26600;SDS011;14241;49.260;10.496;2023-06-24T02:41:01;6.57;;;4.65;;
26600;SDS011;14241;49.260;10.496;2023-06-24T02:43:29;5.88;;;4.47;;
26600;SDS011;14241;49.260;10.496;2023-06-24T02:45:54;5.68;;;4.78;;
26600;SDS011;14241;49.260;10.496;2023-06-24T02:48:20;5.22;;;4.47;;
26600;SDS011;14241;49.260;10.496;2023-06-24T02:50:45;5.40;;;4.90;;
26600;SDS011;14241;49.260;10.496;2023-06-24T02:53:12;4.85;;;4.28;;
26600;SDS011;14241;49.260;10.496;2023-06-24T02:55:37;6.20;;;4.78;;
26600;SDS011;14241;49.260;10.496;2023-06-24T02:58:03;7.00;;;4.80;;
26600;SDS011;14241;49.260;10.496;2023-06-24T03:00:30;6.95;;;5.65;;
26600;SDS011;14241;49.260;10.496;2023-06-24T03:02:58;5.90;;;5.30;;
26600;SDS011;14241;49.260;10.496;2023-06-24T03:05:24;5.05;;;4.55;;
26600;SDS011;14241;49.260;10.496;2023-06-24T03:07:50;5.82;;;5.15;;
26600;SDS011;14241;49.260;10.496;2023-06-24T03:10:16;6.95;;;4.93;;
26600;SDS011;14241;49.260;10.496;2023-06-24T03:12:41;6.07;;;5.45;;
26600;SDS011;14241;49.260;10.496;2023-06-24T03:15:07;7.00;;;5.20;;
26600;SDS011;14241;49.260;10.496;2023-06-24T03:17:34;7.05;;;5.22;;
26600;SDS011;14241;49.260;10.496;2023-06-24T03:19:59;5.65;;;5.00;;
26600;SDS011;14241;49.260;10.496;2023-06-24T03:22:25;5.95;;;5.40;;
26600;SDS011;14241;49.260;10.496;2023-06-24T03:24:50;7.53;;;5.40;;
26600;SDS011;14241;49.260;10.496;2023-06-24T03:27:18;5.50;;;5.00;;
26600;SDS011;14241;49.260;10.496;2023-06-24T03:29:43;6.10;;;4.80;;
26600;SDS011;14241;49.260;10.496;2023-06-24T03:32:09;5.45;;;4.90;;
26600;SDS011;14241;49.260;10.496;2023-06-24T03:34:34;5.53;;;4.50;;
26600;SDS011;14241;49.260;10.496;2023-06-24T03:36:59;5.60;;;5.03;;
26600;SDS011;14241;49.260;10.496;2023-06-24T03:39:25;6.10;;;4.97;;
26600;SDS011;14241;49.260;10.496;2023-06-24T03:41:50;6.25;;;5.20;;
26600;SDS011;14241;49.260;10.496;2023-06-24T03:44:15;7.60;;;5.23;;
26600;SDS011;14241;49.260;10.496;2023-06-24T03:46:41;5.43;;;4.93;;
26600;SDS011;14241;49.260;10.496;2023-06-24T03:49:06;5.40;;;4.87;;
26600;SDS011;14241;49.260;10.496;2023-06-24T03:51:31;6.53;;;4.63;;
26600;SDS011;14241;49.260;10.496;2023-06-24T03:53:57;5.35;;;4.82;;
26600;SDS011;14241;49.260;10.496;2023-06-24T03:56:22;6.00;;;5.30;;
26600;SDS011;14241;49.260;10.496;2023-06-24T03:58:47;6.75;;;5.28;;
26600;SDS011;14241;49.260;10.496;2023-06-24T04:01:12;6.15;;;5.28;;
26600;SDS011;14241;49.260;10.496;2023-06-24T04:03:38;6.82;;;5.07;;
26600;SDS011;14241;49.260;10.496;2023-06-24T04:06:03;6.85;;;5.47;;
26600;SDS011;14241;49.260;10.496;2023-06-24T04:08:28;6.60;;;5.43;;
26600;SDS011;14241;49.260;10.496;2023-06-24T04:10:57;6.10;;;5.50;;
26600;SDS011;14241;49.260;10.496;2023-06-24T04:13:22;6.35;;;5.57;;
26600;SDS011;14241;49.260;10.496;2023-06-24T04:15:47;7.22;;;5.22;;
26600;SDS011;14241;49.260;10.496;2023-06-24T04:18:12;5.60;;;5.10;;
26600;SDS011;14241;49.260;10.496;2023-06-24T04:20:38;6.07;;;5.10;;
26600;SDS011;14241;49.260;10.496;2023-06-24T04:23:03;7.90;;;5.60;;
26600;SDS011;14241;49.260;10.496;2023-06-24T04:25:29;8.25;;;5.22;;
26600;SDS011;14241;49.260;10.496;2023-06-24T04:27:54;6.75;;;5.38;;
26600;SDS011;14241;49.260;10.496;2023-06-24T04:30:19;6.57;;;5.70;;
26600;SDS011;14241;49.260;10.496;2023-06-24T04:32:44;6.07;;;5.18;;
26600;SDS011;14241;49.260;10.496;2023-06-24T04:35:10;6.53;;;5.57;;
26600;SDS011;14241;49.260;10.496;2023-06-24T04:37:35;8.10;;;5.57;;
26600;SDS011;14241;49.260;10.496;2023-06-24T04:40:00;8.37;;;6.77;;
26600;SDS011;14241;49.260;10.496;2023-06-24T04:42:25;7.87;;;6.27;;
26600;SDS011;14241;49.260;10.496;2023-06-24T04:44:51;7.97;;;6.90;;
26600;SDS011;14241;49.260;10.496;2023-06-24T04:47:19;7.35;;;6.60;;
26600;SDS011;14241;49.260;10.496;2023-06-24T04:49:44;9.13;;;6.75;;
26600;SDS011;14241;49.260;10.496;2023-06-24T04:52:10;7.20;;;6.50;;
26600;SDS011;14241;49.260;10.496;2023-06-24T04:54:35;6.95;;;6.25;;
26600;SDS011;14241;49.260;10.496;2023-06-24T04:57:01;8.95;;;6.60;;
26600;SDS011;14241;49.260;10.496;2023-06-24T04:59:26;8.45;;;6.43;;
26600;SDS011;14241;49.260;10.496;2023-06-24T05:01:51;7.27;;;6.07;;
26600;SDS011;14241;49.260;10.496;2023-06-24T05:04:16;8.80;;;6.95;;
26600;SDS011;14241;49.260;10.496;2023-06-24T05:06:42;8.45;;;7.07;;
26600;SDS011;14241;49.260;10.496;2023-06-24T05:09:07;7.25;;;6.55;;
26600;SDS011;14241;49.260;10.496;2023-06-24T05:11:33;8.23;;;6.38;;
26600;SDS011;14241;49.260;10.496;2023-06-24T05:13:59;6.93;;;6.27;;
26600;SDS011;14241;49.260;10.496;2023-06-24T05:16:24;7.35;;;6.55;;
26600;SDS011;14241;49.260;10.496;2023-06-24T05:18:49;6.77;;;6.07;;
26600;SDS011;14241;49.260;10.496;2023-06-24T05:21:14;6.38;;;5.78;;
26600;SDS011;14241;49.260;10.496;2023-06-24T05:23:40;6.70;;;5.97;;
26600;SDS011;14241;49.260;10.496;2023-06-24T05:26:05;5.90;;;5.30;;
26600;SDS011;14241;49.260;10.496;2023-06-24T05:28:30;6.33;;;5.70;;
26600;SDS011;14241;49.260;10.496;2023-06-24T05:30:55;6.20;;;5.60;;
26600;SDS011;14241;49.260;10.496;2023-06-24T05:33:21;5.93;;;5.32;;
26600;SDS011;14241;49.260;10.496;2023-06-24T05:35:46;6.15;;;5.45;;
26600;SDS011;14241;49.260;10.496;2023-06-24T05:38:11;7.90;;;5.60;;
26600;SDS011;14241;49.260;10.496;2023-06-24T05:40:36;6.20;;;5.05;;
26600;SDS011;14241;49.260;10.496;2023-06-24T05:43:02;5.18;;;4.68;;
26600;SDS011;14241;49.260;10.496;2023-06-24T05:45:28;6.15;;;4.95;;
26600;SDS011;14241;49.260;10.496;2023-06-24T05:47:53;6.25;;;4.80;;
26600;SDS011;14241;49.260;10.496;2023-06-24T05:50:18;5.27;;;3.90;;
26600;SDS011;14241;49.260;10.496;2023-06-24T05:52:43;4.90;;;4.40;;
26600;SDS011;14241;49.260;10.496;2023-06-24T05:55:09;4.80;;;4.20;;
26600;SDS011;14241;49.260;10.496;2023-06-24T05:57:34;4.38;;;3.83;;
26600;SDS011;14241;49.260;10.496;2023-06-24T05:59:59;5.18;;;4.30;;
26600;SDS011;14241;49.260;10.496;2023-06-24T06:02:24;4.78;;;3.80;;
26600;SDS011;14241;49.260;10.496;2023-06-24T06:04:50;5.93;;;3.92;;
26600;SDS011;14241;49.260;10.496;2023-06-24T06:07:15;4.65;;;3.63;;
26600;SDS011;14241;49.260;10.496;2023-06-24T06:09:40;4.20;;;3.53;;
26600;SDS011;14241;49.260;10.496;2023-06-24T06:12:06;4.00;;;3.60;;
26600;SDS011;14241;49.260;10.496;2023-06-24T06:14:32;6.57;;;3.85;;
26600;SDS011;14241;49.260;10.496;2023-06-24T06:16:57;5.10;;;3.95;;
26600;SDS011;14241;49.260;10.496;2023-06-24T06:19:22;4.43;;;3.73;;
26600;SDS011;14241;49.260;10.496;2023-06-24T06:21:48;4.33;;;3.30;;
26600;SDS011;14241;49.260;10.496;2023-06-24T06:24:14;3.63;;;3.25;;
26600;SDS011;14241;49.260;10.496;2023-06-24T06:26:43;3.65;;;3.17;;
26600;SDS011;14241;49.260;10.496;2023-06-24T06:29:09;4.32;;;3.08;;
26600;SDS011;14241;49.260;10.496;2023-06-24T06:31:35;3.55;;;3.22;;
26600;SDS011;14241;49.260;10.496;2023-06-24T06:34:00;4.65;;;3.40;;
26600;SDS011;14241;49.260;10.496;2023-06-24T06:36:26;3.78;;;3.38;;
26600;SDS011;14241;49.260;10.496;2023-06-24T06:38:52;4.13;;;3.30;;
26600;SDS011;14241;49.260;10.496;2023-06-24T06:41:17;4.20;;;3.70;;
26600;SDS011;14241;49.260;10.496;2023-06-24T06:43:49;5.45;;;3.90;;
26600;SDS011;14241;49.260;10.496;2023-06-24T06:46:14;4.97;;;3.87;;
26600;SDS011;14241;49.260;10.496;2023-06-24T06:48:39;5.67;;;4.00;;
26600;SDS011;14241;49.260;10.496;2023-06-24T06:51:04;5.07;;;3.87;;
26600;SDS011;14241;49.260;10.496;2023-06-24T06:53:29;7.83;;;3.90;;
26600;SDS011;14241;49.260;10.496;2023-06-24T06:55:55;4.97;;;4.47;;
26600;SDS011;14241;49.260;10.496;2023-06-24T06:58:20;5.30;;;4.70;;
26600;SDS011;14241;49.260;10.496;2023-06-24T07:00:45;7.67;;;4.23;;
26600;SDS011;14241;49.260;10.496;2023-06-24T07:03:10;5.28;;;4.10;;
26600;SDS011;14241;49.260;10.496;2023-06-24T07:05:35;6.67;;;4.50;;
26600;SDS011;14241;49.260;10.496;2023-06-24T07:08:01;6.80;;;3.87;;
26600;SDS011;14241;49.260;10.496;2023-06-24T07:10:26;5.20;;;3.80;;
26600;SDS011;14241;49.260;10.496;2023-06-24T07:12:51;8.27;;;4.00;;
26600;SDS011;14241;49.260;10.496;2023-06-24T07:15:23;8.23;;;4.00;;
26600;SDS011;14241;49.260;10.496;2023-06-24T07:17:48;5.38;;;3.50;;
26600;SDS011;14241;49.260;10.496;2023-06-24T07:20:13;6.17;;;3.87;;
26600;SDS011;14241;49.260;10.496;2023-06-24T07:22:38;4.45;;;3.75;;
26600;SDS011;14241;49.260;10.496;2023-06-24T07:25:04;5.10;;;3.73;;
26600;SDS011;14241;49.260;10.496;2023-06-24T07:27:29;4.18;;;3.60;;
26600;SDS011;14241;49.260;10.496;2023-06-24T07:29:54;4.95;;;3.65;;
26600;SDS011;14241;49.260;10.496;2023-06-24T07:32:19;4.68;;;3.70;;
26600;SDS011;14241;49.260;10.496;2023-06-24T07:34:45;5.73;;;3.93;;
26600;SDS011;14241;49.260;10.496;2023-06-24T07:37:10;3.78;;;3.03;;
26600;SDS011;14241;49.260;10.496;2023-06-24T07:39:35;5.33;;;3.77;;
26600;SDS011;14241;49.260;10.496;2023-06-24T07:42:01;4.10;;;3.70;;
26600;SDS011;14241;49.260;10.496;2023-06-24T07:44:26;4.33;;;3.93;;
26600;SDS011;14241;49.260;10.496;2023-06-24T07:46:51;5.30;;;3.90;;
26600;SDS011;14241;49.260;10.496;2023-06-24T07:49:17;5.65;;;4.05;;
26600;SDS011;14241;49.260;10.496;2023-06-24T07:51:42;6.30;;;3.83;;
26600;SDS011;14241;49.260;10.496;2023-06-24T07:54:09;5.10;;;4.10;;
26600;SDS011;14241;49.260;10.496;2023-06-24T07:56:35;4.93;;;3.50;;
26600;SDS011;14241;49.260;10.496;2023-06-24T07:59:00;6.10;;;4.28;;
26600;SDS011;14241;49.260;10.496;2023-06-24T08:01:25;4.85;;;3.65;;
26600;SDS011;14241;49.260;10.496;2023-06-24T08:03:50;4.90;;;4.03;;
26600;SDS011;14241;49.260;10.496;2023-06-24T08:06:16;5.03;;;3.87;;
26600;SDS011;14241;49.260;10.496;2023-06-24T08:08:41;4.60;;;3.90;;
26600;SDS011;14241;49.260;10.496;2023-06-24T08:11:06;4.80;;;3.87;;
26600;SDS011;14241;49.260;10.496;2023-06-24T08:13:31;5.73;;;4.40;;
26600;SDS011;14241;49.260;10.496;2023-06-24T08:15:56;5.53;;;3.97;;
26600;SDS011;14241;49.260;10.496;2023-06-24T08:18:22;4.65;;;4.15;;
26600;SDS011;14241;49.260;10.496;2023-06-24T08:20:47;4.90;;;3.97;;
26600;SDS011;14241;49.260;10.496;2023-06-24T08:23:12;6.10;;;4.30;;
26600;SDS011;14241;49.260;10.496;2023-06-24T08:25:38;6.17;;;3.90;;
26600;SDS011;14241;49.260;10.496;2023-06-24T08:28:03;6.40;;;4.10;;
26600;SDS011;14241;49.260;10.496;2023-06-24T08:30:28;4.85;;;4.15;;
26600;SDS011;14241;49.260;10.496;2023-06-24T08:32:53;5.77;;;4.60;;
26600;SDS011;14241;49.260;10.496;2023-06-24T08:35:19;5.30;;;3.80;;
26600;SDS011;14241;49.260;10.496;2023-06-24T08:37:44;5.87;;;3.93;;
26600;SDS011;14241;49.260;10.496;2023-06-24T08:40:09;4.90;;;3.63;;
26600;SDS011;14241;49.260;10.496;2023-06-24T08:42:35;5.25;;;3.80;;
26600;SDS011;14241;49.260;10.496;2023-06-24T08:45:00;4.53;;;3.70;;
26600;SDS011;14241;49.260;10.496;2023-06-24T08:47:25;5.30;;;3.83;;
26600;SDS011;14241;49.260;10.496;2023-06-24T08:49:53;5.18;;;3.60;;
26600;SDS011;14241;49.260;10.496;2023-06-24T08:52:21;7.13;;;3.78;;
26600;SDS011;14241;49.260;10.496;2023-06-24T08:54:50;5.40;;;3.75;;
26600;SDS011;14241;49.260;10.496;2023-06-24T08:57:16;3.75;;;3.33;;
26600;SDS011;14241;49.260;10.496;2023-06-24T08:59:41;4.68;;;3.00;;
26600;SDS011;14241;49.260;10.496;2023-06-24T09:02:07;3.60;;;3.20;;
26600;SDS011;14241;49.260;10.496;2023-06-24T09:04:32;3.50;;;2.83;;
26600;SDS011;14241;49.260;10.496;2023-06-24T09:06:57;4.60;;;3.17;;
26600;SDS011;14241;49.260;10.496;2023-06-24T09:09:23;4.85;;;3.03;;
26600;SDS011;14241;49.260;10.496;2023-06-24T09:11:58;4.85;;;3.20;;
26600;SDS011;14241;49.260;10.496;2023-06-24T09:14:24;4.35;;;3.20;;
26600;SDS011;14241;49.260;10.496;2023-06-24T09:19:21;4.07;;;3.20;;
26600;SDS011;14241;49.260;10.496;2023-06-24T09:21:47;4.35;;;2.97;;
26600;SDS011;14241;49.260;10.496;2023-06-24T09:24:12;4.10;;;3.10;;
26600;SDS011;14241;49.260;10.496;2023-06-24T09:26:37;4.87;;;3.37;;
26600;SDS011;14241;49.260;10.496;2023-06-24T09:29:02;3.40;;;2.87;;
26600;SDS011;14241;49.260;10.496;2023-06-24T09:31:28;4.95;;;2.92;;
26600;SDS011;14241;49.260;10.496;2023-06-24T09:33:56;3.67;;;2.63;;
26600;SDS011;14241;49.260;10.496;2023-06-24T09:36:22;3.20;;;2.78;;
26600;SDS011;14241;49.260;10.496;2023-06-24T09:38:47;3.70;;;3.20;;
26600;SDS011;14241;49.260;10.496;2023-06-24T09:41:13;3.20;;;2.90;;
26600;SDS011;14241;49.260;10.496;2023-06-24T09:43:39;3.63;;;2.80;;
26600;SDS011;14241;49.260;10.496;2023-06-24T09:46:07;3.47;;;2.92;;
26600;SDS011;14241;49.260;10.496;2023-06-24T09:48:33;2.97;;;2.67;;
26600;SDS011;14241;49.260;10.496;2023-06-24T09:50:59;3.15;;;2.85;;
26600;SDS011;14241;49.260;10.496;2023-06-24T09:53:25;2.85;;;2.50;;
26600;SDS011;14241;49.260;10.496;2023-06-24T09:55:51;4.15;;;3.03;;
26600;SDS011;14241;49.260;10.496;2023-06-24T09:58:17;4.32;;;2.97;;
26600;SDS011;14241;49.260;10.496;2023-06-24T10:00:43;3.30;;;2.60;;
26600;SDS011;14241;49.260;10.496;2023-06-24T10:03:09;3.83;;;2.70;;
26600;SDS011;14241;49.260;10.496;2023-06-24T10:05:34;6.05;;;2.97;;
26600;SDS011;14241;49.260;10.496;2023-06-24T10:08:00;2.50;;;2.30;;
26600;SDS011;14241;49.260;10.496;2023-06-24T10:10:25;3.70;;;2.58;;
26600;SDS011;14241;49.260;10.496;2023-06-24T10:12:51;4.68;;;2.53;;
26600;SDS011;14241;49.260;10.496;2023-06-24T10:15:16;5.20;;;2.85;;
26600;SDS011;14241;49.260;10.496;2023-06-24T10:17:41;3.78;;;2.47;;
26600;SDS011;14241;49.260;10.496;2023-06-24T10:20:07;4.10;;;2.60;;
26600;SDS011;14241;49.260;10.496;2023-06-24T10:22:32;3.75;;;2.60;;
26600;SDS011;14241;49.260;10.496;2023-06-24T10:25:01;3.33;;;2.60;;
26600;SDS011;14241;49.260;10.496;2023-06-24T10:27:27;6.07;;;2.63;;
26600;SDS011;14241;49.260;10.496;2023-06-24T10:29:55;3.75;;;2.35;;
26600;SDS011;14241;49.260;10.496;2023-06-24T10:32:21;3.50;;;2.35;;
26600;SDS011;14241;49.260;10.496;2023-06-24T10:34:47;2.88;;;2.35;;
26600;SDS011;14241;49.260;10.496;2023-06-24T10:39:56;3.08;;;2.53;;
26600;SDS011;14241;49.260;10.496;2023-06-24T10:44:50;2.47;;;2.20;;
26600;SDS011;14241;49.260;10.496;2023-06-24T10:47:16;2.30;;;2.10;;
26600;SDS011;14241;49.260;10.496;2023-06-24T10:49:42;4.22;;;2.40;;
26600;SDS011;14241;49.260;10.496;2023-06-24T10:52:10;2.67;;;2.25;;
26600;SDS011;14241;49.260;10.496;2023-06-24T10:54:36;5.03;;;2.33;;
26600;SDS011;14241;49.260;10.496;2023-06-24T10:57:02;2.50;;;2.22;;
26600;SDS011;14241;49.260;10.496;2023-06-24T10:59:28;2.60;;;2.05;;
26600;SDS011;14241;49.260;10.496;2023-06-24T11:01:58;2.45;;;2.20;;
26600;SDS011;14241;49.260;10.496;2023-06-24T11:04:23;4.53;;;2.27;;
26600;SDS011;14241;49.260;10.496;2023-06-24T11:07:01;2.93;;;2.63;;
26600;SDS011;14241;49.260;10.496;2023-06-24T11:09:27;3.45;;;2.10;;
26600;SDS011;14241;49.260;10.496;2023-06-24T11:11:52;3.25;;;2.10;;
26600;SDS011;14241;49.260;10.496;2023-06-24T11:14:19;3.67;;;2.30;;
26600;SDS011;14241;49.260;10.496;2023-06-24T11:16:47;2.40;;;2.17;;
26600;SDS011;14241;49.260;10.496;2023-06-24T11:19:13;2.78;;;2.40;;
26600;SDS011;14241;49.260;10.496;2023-06-24T11:21:38;2.28;;;2.08;;
26600;SDS011;14241;49.260;10.496;2023-06-24T11:24:04;2.42;;;2.00;;
26600;SDS011;14241;49.260;10.496;2023-06-24T11:26:29;3.72;;;2.30;;
26600;SDS011;14241;49.260;10.496;2023-06-24T11:28:54;3.97;;;2.20;;
26600;SDS011;14241;49.260;10.496;2023-06-24T11:31:24;2.83;;;2.20;;
26600;SDS011;14241;49.260;10.496;2023-06-24T11:33:50;2.88;;;2.10;;
26600;SDS011;14241;49.260;10.496;2023-06-24T11:36:21;2.20;;;2.00;;
26600;SDS011;14241;49.260;10.496;2023-06-24T11:38:47;2.63;;;1.92;;
26600;SDS011;14241;49.260;10.496;2023-06-24T11:41:12;2.75;;;1.98;;
26600;SDS011;14241;49.260;10.496;2023-06-24T11:43:37;2.28;;;2.08;;
26600;SDS011;14241;49.260;10.496;2023-06-24T11:46:08;2.63;;;2.22;;
26600;SDS011;14241;49.260;10.496;2023-06-24T11:48:38;3.20;;;2.20;;
26600;SDS011;14241;49.260;10.496;2023-06-24T11:51:04;3.05;;;2.30;;
26600;SDS011;14241;49.260;10.496;2023-06-24T11:53:29;2.20;;;1.95;;
26600;SDS011;14241;49.260;10.496;2023-06-24T11:55:56;2.80;;;2.17;;
26600;SDS011;14241;49.260;10.496;2023-06-24T11:58:21;2.85;;;2.17;;
26600;SDS011;14241;49.260;10.496;2023-06-24T12:00:48;2.40;;;2.20;;
26600;SDS011;14241;49.260;10.496;2023-06-24T12:03:13;2.97;;;2.10;;
26600;SDS011;14241;49.260;10.496;2023-06-24T12:05:39;2.67;;;2.25;;
26600;SDS011;14241;49.260;10.496;2023-06-24T12:08:10;2.10;;;1.90;;
26600;SDS011;14241;49.260;10.496;2023-06-24T12:10:36;2.58;;;2.03;;
26600;SDS011;14241;49.260;10.496;2023-06-24T12:13:02;2.60;;;1.92;;
26600;SDS011;14241;49.260;10.496;2023-06-24T12:15:28;4.22;;;2.13;;
26600;SDS011;14241;49.260;10.496;2023-06-24T12:17:54;2.45;;;1.95;;
26600;SDS011;14241;49.260;10.496;2023-06-24T12:20:19;5.32;;;1.90;;
26600;SDS011;14241;49.260;10.496;2023-06-24T12:22:46;2.45;;;2.00;;
26600;SDS011;14241;49.260;10.496;2023-06-24T12:25:12;2.60;;;2.03;;
26600;SDS011;14241;49.260;10.496;2023-06-24T12:27:38;4.18;;;2.15;;
26600;SDS011;14241;49.260;10.496;2023-06-24T12:30:05;3.33;;;2.30;;
26600;SDS011;14241;49.260;10.496;2023-06-24T12:32:30;3.33;;;1.98;;
26600;SDS011;14241;49.260;10.496;2023-06-24T12:34:55;4.97;;;2.23;;
26600;SDS011;14241;49.260;10.496;2023-06-24T12:37:21;3.00;;;2.17;;
26600;SDS011;14241;49.260;10.496;2023-06-24T12:39:46;2.88;;;2.38;;
26600;SDS011;14241;49.260;10.496;2023-06-24T12:42:12;2.53;;;2.00;;
26600;SDS011;14241;49.260;10.496;2023-06-24T12:44:38;3.63;;;2.20;;
26600;SDS011;14241;49.260;10.496;2023-06-24T12:47:03;4.13;;;2.27;;
26600;SDS011;14241;49.260;10.496;2023-06-24T12:49:28;6.45;;;1.85;;
26600;SDS011;14241;49.260;10.496;2023-06-24T12:51:53;2.30;;;2.10;;
26600;SDS011;14241;49.260;10.496;2023-06-24T12:54:19;3.77;;;2.07;;
26600;SDS011;14241;49.260;10.496;2023-06-24T12:56:44;2.90;;;1.87;;
26600;SDS011;14241;49.260;10.496;2023-06-24T12:59:09;2.83;;;2.17;;
26600;SDS011;14241;49.260;10.496;2023-06-24T13:01:34;2.90;;;2.00;;
26600;SDS011;14241;49.260;10.496;2023-06-24T13:03:59;2.80;;;2.13;;
26600;SDS011;14241;49.260;10.496;2023-06-24T13:06:25;4.00;;;2.20;;
26600;SDS011;14241;49.260;10.496;2023-06-24T13:08:50;2.10;;;1.90;;
26600;SDS011;14241;49.260;10.496;2023-06-24T13:11:15;2.70;;;2.00;;
26600;SDS011;14241;49.260;10.496;2023-06-24T13:13:40;2.42;;;2.13;;
26600;SDS011;14241;49.260;10.496;2023-06-24T13:16:06;3.57;;;2.20;;
26600;SDS011;14241;49.260;10.496;2023-06-24T13:18:31;2.27;;;1.87;;
26600;SDS011;14241;49.260;10.496;2023-06-24T13:20:56;2.20;;;2.00;;
26600;SDS011;14241;49.260;10.496;2023-06-24T13:23:21;2.17;;;1.87;;
26600;SDS011;14241;49.260;10.496;2023-06-24T13:25:47;2.88;;;2.00;;
26600;SDS011;14241;49.260;10.496;2023-06-24T13:28:12;2.42;;;1.88;;
26600;SDS011;14241;49.260;10.496;2023-06-24T13:30:38;3.53;;;1.80;;
26600;SDS011;14241;49.260;10.496;2023-06-24T13:33:03;2.73;;;2.20;;
26600;SDS011;14241;49.260;10.496;2023-06-24T13:35:28;3.97;;;2.10;;
26600;SDS011;14241;49.260;10.496;2023-06-24T13:37:53;3.03;;;2.20;;
26600;SDS011;14241;49.260;10.496;2023-06-24T13:40:19;5.67;;;2.33;;
26600;SDS011;14241;49.260;10.496;2023-06-24T13:42:44;4.57;;;2.03;;
26600;SDS011;14241;49.260;10.496;2023-06-24T13:45:09;2.30;;;2.10;;
26600;SDS011;14241;49.260;10.496;2023-06-24T13:47:35;2.63;;;2.17;;
26600;SDS011;14241;49.260;10.496;2023-06-24T13:50:00;2.08;;;1.70;;
26600;SDS011;14241;49.260;10.496;2023-06-24T13:52:26;2.60;;;1.90;;
26600;SDS011;14241;49.260;10.496;2023-06-24T13:54:51;3.78;;;2.05;;
26600;SDS011;14241;49.260;10.496;2023-06-24T13:57:17;2.00;;;1.80;;
26600;SDS011;14241;49.260;10.496;2023-06-24T13:59:42;2.43;;;2.07;;
26600;SDS011;14241;49.260;10.496;2023-06-24T14:02:07;3.63;;;2.17;;
26600;SDS011;14241;49.260;10.496;2023-06-24T14:04:34;3.95;;;2.53;;
26600;SDS011;14241;49.260;10.496;2023-06-24T14:06:59;3.08;;;2.25;;
26600;SDS011;14241;49.260;10.496;2023-06-24T14:09:25;2.43;;;2.03;;
26600;SDS011;14241;49.260;10.496;2023-06-24T14:11:50;2.10;;;1.90;;
26600;SDS011;14241;49.260;10.496;2023-06-24T14:14:16;3.10;;;2.10;;
26600;SDS011;14241;49.260;10.496;2023-06-24T14:16:42;2.60;;;1.77;;
26600;SDS011;14241;49.260;10.496;2023-06-24T14:19:07;6.60;;;2.20;;
26600;SDS011;14241;49.260;10.496;2023-06-24T14:21:32;2.40;;;1.90;;
26600;SDS011;14241;49.260;10.496;2023-06-24T14:23:58;2.97;;;2.05;;
26600;SDS011;14241;49.260;10.496;2023-06-24T14:26:23;3.83;;;2.17;;
26600;SDS011;14241;49.260;10.496;2023-06-24T14:28:48;3.30;;;2.13;;
26600;SDS011;14241;49.260;10.496;2023-06-24T14:31:14;2.60;;;2.13;;
26600;SDS011;14241;49.260;10.496;2023-06-24T14:33:39;2.77;;;1.97;;
26600;SDS011;14241;49.260;10.496;2023-06-24T14:36:05;3.97;;;1.90;;
26600;SDS011;14241;49.260;10.496;2023-06-24T14:38:30;2.80;;;2.20;;
26600;SDS011;14241;49.260;10.496;2023-06-24T14:40:55;3.43;;;2.10;;
26600;SDS011;14241;49.260;10.496;2023-06-24T14:43:21;3.33;;;2.13;;
26600;SDS011;14241;49.260;10.496;2023-06-24T14:45:47;3.20;;;2.10;;
26600;SDS011;14241;49.260;10.496;2023-06-24T14:48:12;2.43;;;1.60;;
26600;SDS011;14241;49.260;10.496;2023-06-24T14:50:37;2.27;;;1.87;;